Pagina principală
METAR-TAF:

METAR-TAF

Aeroporturi :

Granbury, Texas, Statele Unite ale Americii

Latitudine: 32-26-39N, longitudine: 097-49W, elevație: 237 m

Observații meteo curente

Raportul a fost făcut în urmă cu 4 ore și 37 de minute, la 16:55 UTC
Vânt 8 kt de la Sud/Sud-vest, variabil între Sud/Sud-est și Vest/Sud-vest
Temperatură 31°C
Umiditate 55%
Presiune 1019 hPa
Vizibilitate: 16.1 km
Nori împrăștiați la o înălțime de 3900 picior

METAR: KGDJ 221655Z AUTO 20008KT 150V240 10SM SCT039 31/21 A3009 RMK AO2 T03100208

Ora: 16:32 (21:32 UTC)


TAF: lipsă

Observații și prognoze meteo pentru peste 4.000 de aeroporturi (rapoarte METAR și TAF).

Stațiile disponibile sunt reprezentate pe hartă prin puncte galbene și roșii.

Țineți indicatorul mouse-ului pe punctul dorit pentru a vedea denumirea stației.

Apoi, faceți clic pentru a vedea observațiile și prognozele meteorologice.

Pentru a schimba harta: Pentru mărire, faceți clic pe butoanele verzi cu cruce neagră; pentru micșorare, pe butonul verde cu o liniuță; pentru hărți învecinate, pe săgețile verzi.


METAR-TAF: